Terminal Aerodrome Forecast
Issued by NWS Los Angeles, CA

Home | Current Version | Previous Version | Text Only | Print | Product List | Glossary On
Versions: 1 2 3 4 5 6 7 8 9 10 11 12 13 14 15 16 17 18 19
271
FTUS46 KLOX 281434 AAC
TAFSMX
TAF AMD
KSMX 281434Z 2815/2912 00000KT P6SM FEW003
     FM281600 VRB03KT P6SM SCT002
     FM282000 31008KT P6SM SKC
     FM290200 VRB03KT P6SM SKC
     FM290600 VRB03KT 3SM BR BKN005
     FM290900 VRB03KT 1/2SM FG VV001=

USA.gov is the U.S. government's official web portal to all federal, state and local government web resources and services.